»·PEaware :: WAT542 KLAX-KBZN

WAT542 :: KLAX-KBZN

FLIGHT INFORMATION

Flight Status: Arrived
Operator:
Walker Air Transport
More flights by this operator :: More flights under this callsign
Pilot: Andrew C. (28419)
Aircraft: AIRBUS A300B4-600
(A306)
More flights by this aircraft type
Origin: KLAX Los Angeles Intl
United States
Destination: KBZN Gallatin
United States
More flights between these airports :: More routes between these airports
Route: ORCKA5 LAS Q70 BLIPP Q842 WINEN FFU BRIGR BZN
File this flight plan on PilotEdge
Remarks: RMK / SIMBRIEF
Altitude:
(Current/Filed)
33,000ft
Speed:
(Current/Filed)
478kts
Departed: 08-Jul-21 07:50 PM
Arrived: 08-Jul-21 09:48 PM
Distance/Time
Traveled:
784nm/1:57
Distance/Time
To Go:
Arrived

Flight Plot

Page will automatically refresh every two minutes.

Flight plan parsing failed; only flown route is shown


Map Options




Map Legend


Flown Route
Filed Route
Departure Airport
Arrival Airport
Navaid (VOR, NDB)
Fix

Horizontal Profiles

Position Reports

Time Latitude Longitude Heading Altitude Ground
Speed
08-Jul-21 19:29 33.934021 -118.387704 172 112ft 0kts
08-Jul-21 19:30 33.934021 -118.387704 172 112ft 0kts
08-Jul-21 19:31 33.934021 -118.387704 172 112ft 0kts
08-Jul-21 19:32 33.934021 -118.387704 172 112ft 0kts
08-Jul-21 19:33 33.934021 -118.387704 172 112ft 0kts
08-Jul-21 19:34 33.934021 -118.387704 172 112ft 0kts
08-Jul-21 19:35 33.934021 -118.387704 172 112ft 0kts
08-Jul-21 19:36 33.934021 -118.387704 172 112ft 0kts
08-Jul-21 19:37 33.934021 -118.387704 172 112ft 0kts
08-Jul-21 19:38 33.934021 -118.387704 172 112ft 0kts
08-Jul-21 19:39 33.934021 -118.387704 172 112ft 0kts
08-Jul-21 19:40 33.934021 -118.387704 172 112ft 0kts
08-Jul-21 19:41 33.934412 -118.387766 172 112ft 1kts
08-Jul-21 19:42 33.934750 -118.388236 84 112ft 0kts
08-Jul-21 19:43 33.934740 -118.388311 82 112ft 0kts
08-Jul-21 19:44 33.934740 -118.388311 82 112ft 0kts
08-Jul-21 19:45 33.935208 -118.387914 26 112ft 6kts
08-Jul-21 19:46 33.936009 -118.383901 82 109ft 2kts
08-Jul-21 19:47 33.936090 -118.383177 82 108ft 0kts
08-Jul-21 19:48 33.936284 -118.382869 25 108ft 7kts
08-Jul-21 19:49 33.936994 -118.386008 263 111ft 46kts
08-Jul-21 19:50 33.929690 -118.435734 254 1433ft 203kts
08-Jul-21 19:51 33.950090 -118.505074 309 3645ft 264kts
08-Jul-21 19:52 33.942618 -118.591411 237 6876ft 273kts
08-Jul-21 19:53 33.869530 -118.595865 162 10366ft 286kts
08-Jul-21 19:54 33.797175 -118.535567 102 11896ft 367kts
08-Jul-21 19:55 33.852059 -118.432756 38 15138ft 402kts
08-Jul-21 19:56 33.946780 -118.352499 37 18256ft 424kts
08-Jul-21 19:57 34.037609 -118.262691 60 20713ft 434kts
08-Jul-21 19:58 34.104289 -118.133117 58 22686ft 447kts
08-Jul-21 19:59 34.174809 -118.006998 58 23743ft 456kts
08-Jul-21 20:00 34.246951 -117.878387 57 24399ft 461kts
08-Jul-21 20:01 34.319556 -117.748888 57 24895ft 462kts
08-Jul-21 20:02 34.393851 -117.620180 55 25392ft 464kts
08-Jul-21 20:03 34.470899 -117.491094 55 25895ft 467kts
08-Jul-21 20:04 34.550388 -117.357675 55 26411ft 469kts
08-Jul-21 20:05 34.628248 -117.226604 55 26924ft 467kts
08-Jul-21 20:06 34.705205 -117.096531 55 27437ft 470kts
08-Jul-21 20:07 34.785238 -116.960684 55 27967ft 478kts
08-Jul-21 20:08 34.864061 -116.826340 55 28558ft 488kts
08-Jul-21 20:09 34.947522 -116.693627 48 29547ft 488kts
08-Jul-21 20:10 35.040338 -116.570565 48 30546ft 488kts
08-Jul-21 20:11 35.135688 -116.444516 47 31939ft 486kts
08-Jul-21 20:12 35.231669 -116.317408 48 32871ft 492kts
08-Jul-21 20:13 35.325583 -116.192704 47 32871ft 495kts
08-Jul-21 20:14 35.419219 -116.067879 47 32865ft 496kts
08-Jul-21 20:15 35.512927 -115.942450 47 32870ft 495kts
08-Jul-21 20:16 35.608295 -115.814284 47 32872ft 497kts
08-Jul-21 20:17 35.706755 -115.678753 48 32873ft 497kts
08-Jul-21 20:18 35.803781 -115.544571 48 32873ft 497kts
08-Jul-21 20:19 35.897137 -115.415485 48 32866ft 496kts
08-Jul-21 20:20 35.989181 -115.287932 48 32849ft 495kts
08-Jul-21 20:21 36.081679 -115.160695 44 32844ft 497kts
08-Jul-21 20:22 36.185738 -115.046860 40 32864ft 497kts
08-Jul-21 20:24 36.289813 -114.934496 40 32880ft 497kts
08-Jul-21 20:25 36.394524 -114.821226 40 32881ft 496kts
08-Jul-21 20:26 36.498891 -114.707565 40 32881ft 496kts
08-Jul-21 20:27 36.603262 -114.593624 40 32876ft 497kts
08-Jul-21 20:28 36.708046 -114.480438 34 32869ft 495kts
08-Jul-21 20:29 36.824858 -114.386638 30 32874ft 497kts
08-Jul-21 20:30 36.943087 -114.293420 31 32871ft 498kts
08-Jul-21 20:31 37.061960 -114.199690 31 32878ft 500kts
08-Jul-21 20:32 37.181353 -114.105311 30 32938ft 500kts
08-Jul-21 20:33 37.301449 -114.010047 30 33117ft 501kts
08-Jul-21 20:34 37.422570 -113.913593 30 33137ft 501kts
08-Jul-21 20:35 37.545547 -113.815259 30 33138ft 502kts
08-Jul-21 20:36 37.668980 -113.716150 30 33139ft 502kts
08-Jul-21 20:37 37.790608 -113.618086 30 33135ft 502kts
08-Jul-21 20:38 37.911336 -113.520350 30 33094ft 502kts
08-Jul-21 20:39 38.038539 -113.433451 24 33087ft 501kts
08-Jul-21 20:40 38.166443 -113.350789 24 33084ft 502kts
08-Jul-21 20:41 38.294268 -113.268146 24 33073ft 503kts
08-Jul-21 20:41 38.401931 -113.198345 24 33056ft 503kts
08-Jul-21 20:43 38.552633 -113.100258 24 33054ft 503kts
08-Jul-21 20:44 38.680301 -113.016781 24 33056ft 502kts
08-Jul-21 20:45 38.809233 -112.932115 24 33067ft 503kts
08-Jul-21 20:46 38.936414 -112.848240 24 33064ft 503kts
08-Jul-21 20:46 39.043329 -112.777458 24 33018ft 503kts
08-Jul-21 20:47 39.170738 -112.692780 23 33010ft 503kts
08-Jul-21 20:48 39.297918 -112.607899 23 33011ft 504kts
08-Jul-21 20:50 39.447438 -112.507648 23 33017ft 504kts
08-Jul-21 20:50 39.553123 -112.436492 23 33023ft 505kts
08-Jul-21 20:51 39.680377 -112.350480 23 33031ft 505kts
08-Jul-21 20:52 39.806944 -112.264625 24 33026ft 505kts
08-Jul-21 20:53 39.933927 -112.178073 24 33027ft 505kts
08-Jul-21 20:54 40.060538 -112.091401 24 33028ft 505kts
08-Jul-21 20:55 40.183516 -111.998513 35 33027ft 510kts
08-Jul-21 20:56 40.309684 -111.931556 356 33056ft 484kts
08-Jul-21 20:57 40.446864 -111.924730 358 33076ft 489kts
08-Jul-21 20:58 40.583009 -111.914158 358 33092ft 488kts
08-Jul-21 20:59 40.719539 -111.903347 358 33079ft 489kts
08-Jul-21 21:00 40.856631 -111.892370 358 33070ft 490kts
08-Jul-21 21:01 40.993780 -111.881301 357 33076ft 490kts
08-Jul-21 21:02 41.131263 -111.870140 357 33078ft 490kts
08-Jul-21 21:03 41.269795 -111.858844 357 33083ft 491kts
08-Jul-21 21:04 41.409063 -111.847445 357 33022ft 492kts
08-Jul-21 21:05 41.548977 -111.835960 357 32992ft 493kts
08-Jul-21 21:06 41.687529 -111.824542 356 32993ft 492kts
08-Jul-21 21:07 41.826747 -111.813010 357 32993ft 493kts
08-Jul-21 21:08 41.966912 -111.801300 356 33015ft 493kts
08-Jul-21 21:09 42.107101 -111.789501 356 33149ft 493kts
08-Jul-21 21:10 42.245092 -111.777798 356 33147ft 493kts
08-Jul-21 21:11 42.385569 -111.765809 356 33149ft 492kts
08-Jul-21 21:12 42.525109 -111.753834 356 33149ft 491kts
08-Jul-21 21:13 42.665769 -111.741704 356 33158ft 489kts
08-Jul-21 21:14 42.807294 -111.729440 356 33159ft 489kts
08-Jul-21 21:15 42.947274 -111.717251 355 33160ft 488kts
08-Jul-21 21:16 43.086463 -111.705071 355 33166ft 487kts
08-Jul-21 21:17 43.224731 -111.692924 355 33185ft 486kts
08-Jul-21 21:18 43.364901 -111.680551 355 33187ft 486kts
08-Jul-21 21:19 43.504900 -111.668132 354 33187ft 486kts
08-Jul-21 21:20 43.644324 -111.655706 354 33188ft 487kts
08-Jul-21 21:21 43.784946 -111.643123 354 33106ft 488kts
08-Jul-21 21:22 43.925761 -111.630449 354 33033ft 489kts
08-Jul-21 21:23 44.067230 -111.617654 354 33034ft 489kts
08-Jul-21 21:24 44.209969 -111.604670 354 32993ft 483kts
08-Jul-21 21:25 44.338430 -111.592673 353 30982ft 444kts
08-Jul-21 21:26 44.463699 -111.581324 355 27672ft 450kts
08-Jul-21 21:27 44.595572 -111.569197 357 24167ft 448kts
08-Jul-21 21:28 44.727707 -111.556925 357 23902ft 430kts
08-Jul-21 21:29 44.849711 -111.545549 357 22184ft 414kts
08-Jul-21 21:30 44.970500 -111.534277 358 20330ft 403kts
08-Jul-21 21:31 45.086002 -111.523442 358 18553ft 392kts
08-Jul-21 21:32 45.193159 -111.513219 357 18024ft 351kts
08-Jul-21 21:33 45.289987 -111.504047 358 17014ft 332kts
08-Jul-21 21:34 45.385358 -111.495072 358 16998ft 336kts
08-Jul-21 21:35 45.480649 -111.485922 358 16835ft 328kts
08-Jul-21 21:36 45.570824 -111.476417 358 15707ft 317kts
08-Jul-21 21:37 45.656559 -111.467303 359 14761ft 289kts
08-Jul-21 21:38 45.729412 -111.503327 336 13549ft 273kts
08-Jul-21 21:39 45.806090 -111.516013 1 12061ft 275kts
08-Jul-21 21:40 45.879508 -111.492251 20 10416ft 260kts
08-Jul-21 21:41 45.941838 -111.439514 45 8560ft 247kts
08-Jul-21 21:42 45.922349 -111.352905 135 7422ft 220kts
08-Jul-21 21:43 45.880237 -111.295285 134 6790ft 180kts
08-Jul-21 21:44 45.844323 -111.244996 134 5987ft 173kts
08-Jul-21 21:45 45.809885 -111.196637 135 5051ft 169kts
08-Jul-21 21:46 45.777921 -111.152283 136 4465ft 98kts
08-Jul-21 21:47 45.770025 -111.142694 223 4477ft 5kts
08-Jul-21 21:48 45.769286 -111.144240 281 4480ft 10kts
08-Jul-21 21:49 45.768840 -111.145998 163 4483ft 7kts
08-Jul-21 21:50 45.767756 -111.145225 304 4485ft 0kts

Navigation Log

Ident Type
Flight plan parsing failed, navigation log unavailable